Time;durP1;ratioP1;P1;durP2;ratioP2;P2;SDS_P1;SDS_P2;PMS_P1;PMS_P2;Temp;Humidity;BMP_temperature;BMP_pressure;BME280_temperature;BME280_humidity;BME280_pressure;Samples;Min_cycle;Max_cycle;Signal;HPM_P1;HPM_P2
2021/04/20 00:02:09;;;;;;;23.17;13.30;;;;;;;;;;5114783;28;20398;-83
2021/04/20 00:04:35;;;;;;;26.13;14.98;;;;;;;;;;5131916;28;20080;-83
2021/04/20 00:07:01;;;;;;;24.85;14.15;;;;;;;;;;5131723;27;20039;-83
2021/04/20 00:09:27;;;;;;;29.90;15.20;;;;;;;;;;5132929;27;20047;-83
2021/04/20 00:11:53;;;;;;;24.90;14.07;;;;;;;;;;5132926;27;20394;-83
2021/04/20 00:14:19;;;;;;;26.65;14.38;;;;;;;;;;5114673;28;20470;-83
2021/04/20 00:16:46;;;;;;;26.60;14.20;;;;;;;;;;5131473;28;20040;-82
2021/04/20 00:19:12;;;;;;;24.58;13.23;;;;;;;;;;5131675;28;20051;-82
2021/04/20 00:21:38;;;;;;;24.33;14.55;;;;;;;;;;5131565;27;20043;-82
2021/04/20 00:24:04;;;;;;;24.38;14.18;;;;;;;;;;5131770;28;20062;-82
2021/04/20 00:26:30;;;;;;;27.42;14.80;;;;;;;;;;5131444;27;20092;-83
2021/04/20 00:28:56;;;;;;;25.75;13.88;;;;;;;;;;5131492;28;20539;-82
2021/04/20 00:31:22;;;;;;;26.13;14.25;;;;;;;;;;5132618;27;20073;-82
2021/04/20 00:33:48;;;;;;;25.23;13.70;;;;;;;;;;5132681;27;20470;-82
2021/04/20 00:36:14;;;;;;;30.58;14.98;;;;;;;;;;5131199;28;20043;-82
2021/04/20 00:38:41;;;;;;;27.13;13.63;;;;;;;;;;5131533;28;20383;-82
2021/04/20 00:41:11;;;;;;;25.70;13.30;;;;;;;;;;5114656;28;20122;-82
2021/04/20 00:43:38;;;;;;;28.60;14.45;;;;;;;;;;5131432;28;20470;-82
2021/04/20 00:46:07;;;;;;;24.17;13.73;;;;;;;;;;5131373;28;20413;-82
2021/04/20 00:48:33;;;;;;;27.88;14.60;;;;;;;;;;5131389;27;20039;-82
2021/04/20 00:50:59;;;;;;;26.35;14.80;;;;;;;;;;5131278;28;20031;-82
2021/04/20 00:53:26;;;;;;;24.98;13.88;;;;;;;;;;5132454;27;20082;-82
2021/04/20 00:55:52;;;;;;;25.50;14.00;;;;;;;;;;5131096;28;20039;-82
2021/04/20 00:58:18;;;;;;;28.23;13.90;;;;;;;;;;5132408;27;20035;-82
2021/04/20 01:00:44;;;;;;;30.17;15.60;;;;;;;;;;5134654;27;20045;-83
2021/04/20 01:03:10;;;;;;;28.00;14.70;;;;;;;;;;5117727;27;20038;-83
2021/04/20 01:05:36;;;;;;;24.83;13.07;;;;;;;;;;5134897;27;20114;-82
2021/04/20 01:08:04;;;;;;;26.27;13.32;;;;;;;;;;5117744;27;20188;-82
2021/04/20 01:10:30;;;;;;;29.88;14.65;;;;;;;;;;5135891;27;20549;-83
2021/04/20 01:12:56;;;;;;;29.30;14.77;;;;;;;;;;5134698;27;20042;-82
2021/04/20 01:15:22;;;;;;;27.60;14.60;;;;;;;;;;5134541;27;20040;-82
2021/04/20 01:17:49;;;;;;;27.70;14.85;;;;;;;;;;5134421;27;20126;-82
2021/04/20 01:20:15;;;;;;;27.65;14.32;;;;;;;;;;5117461;27;20035;-82
2021/04/20 01:22:42;;;;;;;28.42;14.93;;;;;;;;;;5135739;27;20035;-83
2021/04/20 01:25:09;;;;;;;27.58;14.73;;;;;;;;;;5134651;27;20084;-83
2021/04/20 01:27:36;;;;;;;29.88;14.70;;;;;;;;;;5134555;27;20035;-83
2021/04/20 01:30:02;;;;;;;24.70;13.32;;;;;;;;;;5134403;27;20035;-83
2021/04/20 01:32:28;;;;;;;28.40;14.80;;;;;;;;;;5134239;27;20079;-82
2021/04/20 01:34:55;;;;;;;29.48;14.52;;;;;;;;;;5134093;27;20096;-83
2021/04/20 01:37:21;;;;;;;27.40;14.23;;;;;;;;;;5134125;27;20043;-82
2021/04/20 01:39:48;;;;;;;29.98;15.25;;;;;;;;;;5134165;27;20039;-81
2021/04/20 01:42:14;;;;;;;29.17;15.10;;;;;;;;;;5134184;27;20423;-82
2021/04/20 01:44:40;;;;;;;30.65;15.80;;;;;;;;;;5135316;27;20035;-82
2021/04/20 01:47:06;;;;;;;33.42;16.90;;;;;;;;;;5135221;27;20090;-82
2021/04/20 01:49:33;;;;;;;31.55;15.45;;;;;;;;;;5134055;27;20057;-83
2021/04/20 01:51:59;;;;;;;27.45;14.88;;;;;;;;;;5133990;27;20032;-83
2021/04/20 01:54:25;;;;;;;28.27;14.02;;;;;;;;;;5133969;27;20058;-83
2021/04/20 01:56:51;;;;;;;30.55;15.60;;;;;;;;;;5133780;27;20038;-83
2021/04/20 01:59:17;;;;;;;27.35;14.90;;;;;;;;;;5133871;27;20031;-83
2021/04/20 02:01:46;;;;;;;32.88;15.43;;;;;;;;;;5133783;27;20032;-83
2021/04/20 02:04:12;;;;;;;31.33;14.82;;;;;;;;;;5116685;27;20038;-83
2021/04/20 02:06:38;;;;;;;33.95;15.75;;;;;;;;;;5133767;27;20039;-83
2021/04/20 02:09:05;;;;;;;32.08;15.40;;;;;;;;;;5133604;27;20096;-83
2021/04/20 02:11:31;;;;;;;30.23;14.75;;;;;;;;;;5133531;27;20435;-83
2021/04/20 02:14:00;;;;;;;27.17;14.27;;;;;;;;;;5133492;27;20061;-82
2021/04/20 02:16:27;;;;;;;29.15;15.15;;;;;;;;;;5133333;27;20268;-83
2021/04/20 02:18:58;;;;;;;34.42;16.58;;;;;;;;;;5116659;27;20104;-83
2021/04/20 02:21:24;;;;;;;33.00;17.15;;;;;;;;;;5133372;27;20085;-83
2021/04/20 02:23:50;;;;;;;32.50;17.15;;;;;;;;;;5133318;27;20031;-83
2021/04/20 02:26:24;;;;;;;31.98;16.27;;;;;;;;;;5134445;27;20490;-83
2021/04/20 02:28:50;;;;;;;31.25;16.85;;;;;;;;;;5133179;27;20057;-84
2021/04/20 02:31:16;;;;;;;32.25;16.80;;;;;;;;;;5116098;27;20549;-83
2021/04/20 02:33:43;;;;;;;31.48;16.00;;;;;;;;;;5134373;27;20039;-83
2021/04/20 02:36:09;;;;;;;29.90;15.45;;;;;;;;;;5115965;27;20404;-83
2021/04/20 02:38:35;;;;;;;32.72;16.08;;;;;;;;;;5134202;27;20074;-83
2021/04/20 02:41:02;;;;;;;26.50;14.82;;;;;;;;;;5134099;27;20188;-83
2021/04/20 02:43:28;;;;;;;27.77;15.63;;;;;;;;;;5134046;27;20046;-83
2021/04/20 02:45:56;;;;;;;30.70;16.75;;;;;;;;;;5132905;27;20042;-83
2021/04/20 02:48:22;;;;;;;30.48;15.95;;;;;;;;;;5132861;27;20046;-83
2021/04/20 02:50:48;;;;;;;28.10;14.30;;;;;;;;;;5132805;27;20399;-82
2021/04/20 02:53:17;;;;;;;29.30;15.13;;;;;;;;;;5115750;27;20046;-82
2021/04/20 02:55:44;;;;;;;29.67;15.05;;;;;;;;;;5132397;27;20485;-82
2021/04/20 02:58:16;;;;;;;31.65;15.38;;;;;;;;;;5115772;27;20121;-82
2021/04/20 03:00:43;;;;;;;31.48;15.88;;;;;;;;;;5132689;27;20442;-82
2021/04/20 03:03:09;;;;;;;28.20;14.70;;;;;;;;;;5132860;27;20035;-83
2021/04/20 03:05:35;;;;;;;30.63;15.57;;;;;;;;;;5132445;27;20504;-82
2021/04/20 03:08:01;;;;;;;26.50;15.02;;;;;;;;;;5132448;27;20035;-82
2021/04/20 03:10:27;;;;;;;26.83;14.32;;;;;;;;;;5133525;27;20109;-82
2021/04/20 03:12:53;;;;;;;25.20;13.95;;;;;;;;;;5115551;27;20035;-83
2021/04/20 03:15:19;;;;;;;29.08;14.18;;;;;;;;;;5132320;27;20058;-83
2021/04/20 03:17:46;;;;;;;28.83;14.80;;;;;;;;;;5115116;27;20039;-82
2021/04/20 03:20:14;;;;;;;27.48;14.48;;;;;;;;;;5133449;27;20043;-83
2021/04/20 03:22:41;;;;;;;25.50;14.32;;;;;;;;;;5133090;27;20035;-82
2021/04/20 03:25:10;;;;;;;26.85;15.13;;;;;;;;;;5115129;27;20493;-82
2021/04/20 03:27:36;;;;;;;26.35;13.90;;;;;;;;;;5133265;27;20474;-83
2021/04/20 03:30:03;;;;;;;27.92;15.25;;;;;;;;;;5133392;27;20156;-82
2021/04/20 03:32:30;;;;;;;30.58;15.57;;;;;;;;;;5132110;27;20039;-82
2021/04/20 03:34:59;;;;;;;31.85;15.35;;;;;;;;;;5131969;27;20555;-86
2021/04/20 03:37:30;;;;;;;30.33;14.48;;;;;;;;;;5132989;27;20067;-83
2021/04/20 03:39:56;;;;;;;28.45;16.20;;;;;;;;;;5132070;27;20039;-82
2021/04/20 03:42:30;;;;;;;26.15;13.68;;;;;;;;;;5132097;27;20039;-82
2021/04/20 03:45:05;;;;;;;27.30;14.27;;;;;;;;;;5132106;27;20035;-83
2021/04/20 03:47:38;;;;;;;28.92;14.73;;;;;;;;;;5133550;27;20043;-83
2021/04/20 03:50:08;;;;;;;31.40;15.60;;;;;;;;;;5114857;27;20514;-82
2021/04/20 03:52:43;;;;;;;29.38;16.27;;;;;;;;;;5131950;28;20507;-82
2021/04/20 03:55:09;;;;;;;31.55;15.18;;;;;;;;;;5131878;28;20118;-82
2021/04/20 03:57:35;;;;;;;34.05;15.57;;;;;;;;;;5131785;27;20092;-82
2021/04/20 04:00:02;;;;;;;32.42;16.05;;;;;;;;;;5131901;28;20243;-82
2021/04/20 04:02:30;;;;;;;29.77;15.77;;;;;;;;;;5132909;27;20069;-82
2021/04/20 04:04:56;;;;;;;28.58;15.25;;;;;;;;;;5115244;28;20034;-82
2021/04/20 04:07:22;;;;;;;27.35;14.18;;;;;;;;;;5131727;27;20040;-82
2021/04/20 04:09:48;;;;;;;30.05;15.10;;;;;;;;;;5114724;28;20118;-82
2021/04/20 04:12:14;;;;;;;29.25;15.40;;;;;;;;;;5131948;28;20084;-83
2021/04/20 04:14:40;;;;;;;26.50;14.48;;;;;;;;;;5131935;28;20474;-83
2021/04/20 04:17:07;;;;;;;28.60;14.27;;;;;;;;;;5131441;28;20036;-83
2021/04/20 04:19:45;;;;;;;32.50;14.75;;;;;;;;;;5131621;27;20135;-82
2021/04/20 04:22:20;;;;;;;31.30;15.48;;;;;;;;;;5131778;28;20039;-82
2021/04/20 04:24:50;;;;;;;34.30;16.35;;;;;;;;;;5131671;27;20032;-83
2021/04/20 04:27:16;;;;;;;34.40;17.75;;;;;;;;;;5114528;28;20037;-82
2021/04/20 04:29:42;;;;;;;37.88;17.05;;;;;;;;;;5131655;27;20041;-82
2021/04/20 04:32:11;;;;;;;39.55;17.98;;;;;;;;;;5131537;28;20035;-82
2021/04/20 04:34:37;;;;;;;37.08;18.23;;;;;;;;;;5134375;27;20505;-82
2021/04/20 04:37:03;;;;;;;44.42;19.42;;;;;;;;;;5135281;27;20070;-83
2021/04/20 04:39:29;;;;;;;40.78;18.23;;;;;;;;;;5136633;27;20067;-82
2021/04/20 04:41:55;;;;;;;40.67;18.40;;;;;;;;;;5135331;27;20027;-83
2021/04/20 04:44:21;;;;;;;37.22;16.88;;;;;;;;;;5135270;27;20108;-82
2021/04/20 04:46:47;;;;;;;36.90;18.25;;;;;;;;;;5118139;27;20489;-82
2021/04/20 04:49:13;;;;;;;37.55;18.60;;;;;;;;;;5135523;27;20042;-82
2021/04/20 04:51:40;;;;;;;40.97;19.77;;;;;;;;;;5135141;27;20355;-82
2021/04/20 04:54:06;;;;;;;37.53;17.92;;;;;;;;;;5118061;27;20172;-82
2021/04/20 04:56:33;;;;;;;36.95;18.25;;;;;;;;;;5134836;27;20122;-82
2021/04/20 04:58:59;;;;;;;37.03;17.90;;;;;;;;;;5135089;27;20042;-83
2021/04/20 05:01:25;;;;;;;36.63;18.75;;;;;;;;;;5134924;27;20035;-82
2021/04/20 05:03:51;;;;;;;35.28;17.55;;;;;;;;;;5135010;27;20038;-82
2021/04/20 05:06:17;;;;;;;32.47;16.55;;;;;;;;;;5117713;27;20051;-83
2021/04/20 05:08:43;;;;;;;40.10;18.10;;;;;;;;;;5134964;27;20031;-82
2021/04/20 05:11:10;;;;;;;32.55;16.25;;;;;;;;;;5135864;27;20270;-83
2021/04/20 05:13:36;;;;;;;35.53;17.30;;;;;;;;;;5134704;27;20035;-82
2021/04/20 05:16:08;;;;;;;37.85;17.50;;;;;;;;;;5117595;27;20077;-83
2021/04/20 05:18:35;;;;;;;35.53;16.48;;;;;;;;;;5117617;27;20118;-82
2021/04/20 05:21:01;;;;;;;39.47;18.85;;;;;;;;;;5134657;27;20088;-83
2021/04/20 05:23:27;;;;;;;40.67;18.00;;;;;;;;;;5117529;27;20043;-83
2021/04/20 05:25:53;;;;;;;41.10;17.77;;;;;;;;;;5134322;27;20042;-83
2021/04/20 05:28:20;;;;;;;34.00;15.68;;;;;;;;;;5134530;27;20062;-82
2021/04/20 05:30:46;;;;;;;36.33;17.45;;;;;;;;;;5117577;27;20037;-82
2021/04/20 05:33:15;;;;;;;32.90;17.05;;;;;;;;;;5135686;27;20425;-83
2021/04/20 05:35:42;;;;;;;35.65;16.77;;;;;;;;;;5134220;27;20055;-83
2021/04/20 05:38:08;;;;;;;38.40;17.63;;;;;;;;;;5134071;27;20039;-83
2021/04/20 05:40:38;;;;;;;39.28;17.98;;;;;;;;;;5117108;27;20067;-83
2021/04/20 05:43:05;;;;;;;34.25;17.13;;;;;;;;;;5117505;27;20043;-84
2021/04/20 05:45:32;;;;;;;35.60;17.02;;;;;;;;;;5133719;27;20327;-83
2021/04/20 05:47:59;;;;;;;35.75;18.65;;;;;;;;;;5117118;27;20035;-83
2021/04/20 05:50:27;;;;;;;41.72;18.92;;;;;;;;;;5133964;27;20031;-83
2021/04/20 05:52:53;;;;;;;37.67;18.70;;;;;;;;;;5133860;27;20447;-85
2021/04/20 05:55:19;;;;;;;38.78;19.27;;;;;;;;;;5117037;27;20496;-84
2021/04/20 05:57:46;;;;;;;40.83;20.23;;;;;;;;;;5134156;27;20389;-84
2021/04/20 06:00:12;;;;;;;39.35;20.73;;;;;;;;;;5133828;27;20107;-85
2021/04/20 06:02:38;;;;;;;38.03;20.88;;;;;;;;;;5133754;27;20035;-85
2021/04/20 06:05:11;;;;;;;39.47;20.55;;;;;;;;;;5133789;27;20061;-87
2021/04/20 06:07:39;;;;;;;41.40;21.52;;;;;;;;;;5133606;27;20043;-85
2021/04/20 06:10:06;;;;;;;41.63;22.38;;;;;;;;;;5134849;27;20067;-84
2021/04/20 06:12:32;;;;;;;46.53;24.80;;;;;;;;;;5133584;27;20039;-84
2021/04/20 06:14:58;;;;;;;45.58;26.35;;;;;;;;;;5134669;27;20035;-84
2021/04/20 06:17:24;;;;;;;46.38;26.67;;;;;;;;;;5133254;27;20459;-83
2021/04/20 06:19:50;;;;;;;42.13;26.05;;;;;;;;;;5134529;27;20035;-83
2021/04/20 06:22:16;;;;;;;43.47;24.90;;;;;;;;;;5133545;27;20035;-83
2021/04/20 06:24:43;;;;;;;39.28;24.58;;;;;;;;;;5133278;27;20039;-83
2021/04/20 06:27:09;;;;;;;35.03;23.30;;;;;;;;;;5133195;27;20038;-83
2021/04/20 06:29:37;;;;;;;34.80;22.25;;;;;;;;;;5116181;27;20401;-83
2021/04/20 06:32:03;;;;;;;35.88;23.20;;;;;;;;;;5132685;27;20035;-83
2021/04/20 06:34:29;;;;;;;34.25;22.42;;;;;;;;;;5130342;27;20225;-83
2021/04/20 06:36:55;;;;;;;34.05;21.30;;;;;;;;;;5131812;27;20043;-83
2021/04/20 06:39:21;;;;;;;37.00;21.90;;;;;;;;;;5130888;27;20056;-85
2021/04/20 06:41:51;;;;;;;34.13;22.27;;;;;;;;;;5115862;27;20035;-87
2021/04/20 06:44:36;;;;;;;31.55;19.85;;;;;;;;;;5132832;27;20035;-84
2021/04/20 06:47:05;;;;;;;34.30;20.08;;;;;;;;;;5133857;27;20064;-82
2021/04/20 06:49:32;;;;;;;30.88;20.30;;;;;;;;;;5132785;27;20475;-83
2021/04/20 06:52:02;;;;;;;34.80;21.00;;;;;;;;;;5133608;27;20043;-83
2021/04/20 06:54:29;;;;;;;28.42;19.40;;;;;;;;;;5132640;27;20059;-82
2021/04/20 06:56:57;;;;;;;29.50;19.83;;;;;;;;;;5131662;27;20042;-83
2021/04/20 06:59:30;;;;;;;29.38;19.50;;;;;;;;;;5113239;27;20098;-82
2021/04/20 07:02:07;;;;;;;28.02;20.08;;;;;;;;;;5131640;27;20390;-83
2021/04/20 07:04:46;;;;;;;31.20;19.85;;;;;;;;;;5132587;27;20062;-84
2021/04/20 07:07:30;;;;;;;29.65;19.08;;;;;;;;;;5132416;27;20039;-83
2021/04/20 07:09:57;;;;;;;30.85;19.10;;;;;;;;;;5132550;27;20127;-85
2021/04/20 07:12:23;;;;;;;23.88;14.10;;;;;;;;;;5132493;27;20087;-83
2021/04/20 07:14:50;;;;;;;31.27;19.52;;;;;;;;;;5133624;27;20039;-83
2021/04/20 07:17:19;;;;;;;26.23;18.05;;;;;;;;;;5133533;27;20046;-84
2021/04/20 07:19:48;;;;;;;25.08;17.77;;;;;;;;;;5133625;27;20043;-84
2021/04/20 07:22:38;;;;;;;29.35;18.45;;;;;;;;;;5133486;27;20071;-84
2021/04/20 07:25:06;;;;;;;26.08;18.05;;;;;;;;;;5132374;27;20039;-83
2021/04/20 07:27:40;;;;;;;28.10;18.67;;;;;;;;;;5133358;27;20440;-84
2021/04/20 07:30:08;;;;;;;27.55;18.80;;;;;;;;;;5115223;27;20035;-84
2021/04/20 07:32:50;;;;;;;28.73;20.02;;;;;;;;;;5133269;27;20039;-84
2021/04/20 07:35:33;;;;;;;24.67;17.73;;;;;;;;;;5132155;27;20051;-84
2021/04/20 07:37:59;;;;;;;;;;;;;;;;;;5132265;27;20039;-84
2021/04/20 07:40:32;;;;;;;24.20;16.17;;;;;;;;;;5132202;27;19915;-84
2021/04/20 07:43:05;;;;;;;21.13;13.80;;;;;;;;;;5131996;27;20427;-83
2021/04/20 07:45:36;;;;;;;19.35;14.05;;;;;;;;;;5132193;27;20087;-83
2021/04/20 07:48:37;;;;;;;18.30;14.45;;;;;;;;;;5131907;28;20501;-82
2021/04/20 07:51:20;;;;;;;25.25;13.45;;;;;;;;;;5131033;28;20043;-82
2021/04/20 07:53:59;;;;;;;20.45;14.05;;;;;;;;;;5132936;27;20047;-81
2021/04/20 07:56:25;;;;;;;18.48;13.23;;;;;;;;;;5131754;28;20481;-82
2021/04/20 07:58:52;;;;;;;19.30;12.45;;;;;;;;;;5133176;27;20046;-84
2021/04/20 08:01:33;;;;;;;17.73;14.10;;;;;;;;;;5133124;27;20035;-85
2021/04/20 08:04:05;;;;;;;22.83;14.15;;;;;;;;;;5131737;28;20038;-84
2021/04/20 08:06:33;;;;;;;20.38;12.52;;;;;;;;;;5131825;28;20331;-84
2021/04/20 08:09:02;;;;;;;17.58;12.90;;;;;;;;;;5134448;27;20103;-84
2021/04/20 08:11:32;;;;;;;19.27;14.20;;;;;;;;;;5135995;27;20466;-84
2021/04/20 08:14:09;;;;;;;19.63;14.38;;;;;;;;;;5135869;27;20035;-84
2021/04/20 08:16:35;;;;;;;21.08;15.23;;;;;;;;;;5135584;27;20035;-84
2021/04/20 08:19:06;;;;;;;19.23;13.27;;;;;;;;;;5137095;27;20042;-83
2021/04/20 08:21:32;;;;;;;19.23;13.45;;;;;;;;;;5135827;27;20046;-84
2021/04/20 08:23:58;;;;;;;18.17;12.90;;;;;;;;;;5135678;27;20037;-84
2021/04/20 08:26:26;;;;;;;18.58;13.65;;;;;;;;;;5135678;27;20095;-84
2021/04/20 08:29:03;;;;;;;17.52;13.45;;;;;;;;;;5135729;27;20092;-82
2021/04/20 08:31:48;;;;;;;19.38;12.77;;;;;;;;;;5135450;27;20035;-82
2021/04/20 08:34:22;;;;;;;17.55;12.50;;;;;;;;;;5136379;27;20059;-82
2021/04/20 08:36:51;;;;;;;16.52;12.05;;;;;;;;;;5136473;27;20043;-83
2021/04/20 08:39:21;;;;;;;14.48;10.63;;;;;;;;;;5118502;27;20042;-83
2021/04/20 08:41:51;;;;;;;15.20;11.40;;;;;;;;;;5118395;27;20139;-82
2021/04/20 08:44:29;;;;;;;18.42;11.30;;;;;;;;;;5136328;27;20027;-82
2021/04/20 08:47:28;;;;;;;17.83;11.38;;;;;;;;;;5118230;27;20039;-82
2021/04/20 08:49:56;;;;;;;15.18;11.00;;;;;;;;;;5134963;27;20059;-82
2021/04/20 08:52:22;;;;;;;16.20;10.48;;;;;;;;;;5118195;27;20122;-82
2021/04/20 08:55:07;;;;;;;15.43;9.85;;;;;;;;;;5136329;27;20035;-82
2021/04/20 08:57:46;;;;;;;16.45;9.90;;;;;;;;;;5136025;27;20035;-82
2021/04/20 09:00:16;;;;;;;16.88;9.65;;;;;;;;;;5134827;27;20068;-82
2021/04/20 09:02:42;;;;;;;13.48;9.48;;;;;;;;;;5134911;27;20114;-82
2021/04/20 09:05:12;;;;;;;15.23;10.63;;;;;;;;;;5136166;27;20067;-83
2021/04/20 09:07:56;;;;;;;15.55;10.00;;;;;;;;;;5117765;27;20068;-83
2021/04/20 09:10:25;;;;;;;15.50;9.70;;;;;;;;;;5134897;27;20121;-83
2021/04/20 09:13:15;;;;;;;13.10;9.15;;;;;;;;;;5135898;27;20065;-82
2021/04/20 09:15:51;;;;;;;13.80;9.13;;;;;;;;;;5135877;27;20066;-83
2021/04/20 09:18:23;;;;;;;14.65;9.98;;;;;;;;;;5100619;27;20039;-83
2021/04/20 09:20:59;;;;;;;16.38;9.98;;;;;;;;;;5134922;27;20390;-83
2021/04/20 09:23:35;;;;;;;14.43;9.07;;;;;;;;;;5135663;27;20486;-81
2021/04/20 09:26:20;;;;;;;13.77;9.30;;;;;;;;;;5135628;27;20042;-82
2021/04/20 09:28:55;;;;;;;17.20;9.82;;;;;;;;;;5135576;27;20474;-83
2021/04/20 09:31:22;;;;;;;14.10;9.82;;;;;;;;;;5134751;27;20470;-83
2021/04/20 09:33:54;;;;;;;15.30;9.60;;;;;;;;;;5134121;27;20046;-83
2021/04/20 09:36:21;;;;;;;13.95;8.65;;;;;;;;;;5135333;27;20518;-82
2021/04/20 09:38:47;;;;;;;13.57;9.02;;;;;;;;;;5134226;27;20031;-82
2021/04/20 09:41:24;;;;;;;13.30;8.20;;;;;;;;;;5134002;27;20043;-80
2021/04/20 09:43:53;;;;;;;13.57;7.60;;;;;;;;;;5117417;27;20493;-85
2021/04/20 09:46:19;;;;;;;12.57;7.90;;;;;;;;;;5116872;27;20039;-84
2021/04/20 09:48:48;;;;;;;12.68;7.93;;;;;;;;;;5135211;27;20035;-85
2021/04/20 09:51:32;;;;;;;14.57;8.70;;;;;;;;;;5135182;27;20039;-85
2021/04/20 09:54:07;;;;;;;10.73;7.40;;;;;;;;;;5117004;27;20035;-85
2021/04/20 09:56:35;;;;;;;11.73;8.15;;;;;;;;;;5133681;27;20042;-84
2021/04/20 09:59:06;;;;;;;12.45;7.68;;;;;;;;;;5133813;27;20046;-84
2021/04/20 10:01:35;;;;;;;11.02;7.40;;;;;;;;;;5133662;27;20031;-84
2021/04/20 10:04:07;;;;;;;12.35;7.28;;;;;;;;;;5133811;27;20037;-84
2021/04/20 10:06:39;;;;;;;8.98;7.03;;;;;;;;;;5133731;27;20042;-85
2021/04/20 10:09:23;;;;;;;11.10;7.53;;;;;;;;;;5133601;27;20427;-83
2021/04/20 10:12:02;;;;;;;13.95;7.57;;;;;;;;;;5133599;27;20334;-84
2021/04/20 10:14:28;;;;;;;11.85;7.30;;;;;;;;;;5133684;27;20053;-84
2021/04/20 10:16:54;;;;;;;9.40;6.88;;;;;;;;;;5134809;27;20047;-84
2021/04/20 10:19:28;;;;;;;11.43;7.00;;;;;;;;;;5134575;27;20081;-84
2021/04/20 10:21:57;;;;;;;12.32;7.70;;;;;;;;;;5133605;27;20067;-84
2021/04/20 10:24:24;;;;;;;10.02;6.93;;;;;;;;;;5134764;27;20039;-84
2021/04/20 10:26:54;;;;;;;14.45;7.18;;;;;;;;;;5133227;27;20039;-84
2021/04/20 10:29:28;;;;;;;13.13;6.10;;;;;;;;;;5133291;27;20104;-84
2021/04/20 10:31:54;;;;;;;;;;;;;;;;;;5134880;27;20066;-85
2021/04/20 10:34:20;;;;;;;9.02;5.78;;;;;;;;;;5132923;27;19960;-84
2021/04/20 10:36:51;;;;;;;11.77;5.88;;;;;;;;;;5133020;27;20039;-85
2021/04/20 10:39:17;;;;;;;8.40;5.15;;;;;;;;;;5133094;27;20092;-84
2021/04/20 10:41:44;;;;;;;8.88;5.95;;;;;;;;;;5132921;27;20031;-84
2021/04/20 10:44:11;;;;;;;11.02;6.25;;;;;;;;;;5132959;27;20049;-85
2021/04/20 10:46:37;;;;;;;12.75;6.72;;;;;;;;;;5133830;27;20469;-84
2021/04/20 10:49:03;;;;;;;9.15;6.15;;;;;;;;;;5132842;27;20039;-84
2021/04/20 10:51:33;;;;;;;11.07;6.05;;;;;;;;;;5134132;27;20114;-85
2021/04/20 10:53:59;;;;;;;9.40;5.78;;;;;;;;;;5115836;27;20042;-84
2021/04/20 10:56:25;;;;;;;9.90;6.13;;;;;;;;;;5132813;27;20063;-84
2021/04/20 10:58:54;;;;;;;9.52;6.40;;;;;;;;;;5132633;27;20039;-84
2021/04/20 11:01:21;;;;;;;9.57;6.63;;;;;;;;;;5134225;27;20031;-85
2021/04/20 11:03:47;;;;;;;12.00;6.55;;;;;;;;;;5133778;27;20050;-84
2021/04/20 11:06:32;;;;;;;8.52;6.32;;;;;;;;;;5132493;27;20039;-84
2021/04/20 11:08:58;;;;;;;11.25;6.65;;;;;;;;;;5133860;27;20046;-84
2021/04/20 11:11:24;;;;;;;12.50;7.07;;;;;;;;;;5132427;27;20039;-84
2021/04/20 11:13:50;;;;;;;10.63;6.65;;;;;;;;;;5132321;27;20042;-84
2021/04/20 11:16:24;;;;;;;9.93;6.28;;;;;;;;;;5115200;27;20398;-85
2021/04/20 11:18:52;;;;;;;8.98;6.43;;;;;;;;;;5132328;27;20497;-84
2021/04/20 11:21:20;;;;;;;9.73;6.22;;;;;;;;;;5132316;27;20043;-84
2021/04/20 11:24:08;;;;;;;7.63;6.07;;;;;;;;;;5132268;27;20110;-85
2021/04/20 11:26:36;;;;;;;7.22;5.45;;;;;;;;;;5132133;27;20050;-84
2021/04/20 11:29:03;;;;;;;9.23;4.80;;;;;;;;;;5132190;27;20031;-83
2021/04/20 11:31:30;;;;;;;6.60;4.88;;;;;;;;;;5133632;27;20043;-83
2021/04/20 11:34:05;;;;;;;7.18;5.20;;;;;;;;;;5115014;27;20114;-83
2021/04/20 11:36:41;;;;;;;9.77;5.80;;;;;;;;;;5133249;27;20045;-85
2021/04/20 11:39:10;;;;;;;9.88;6.00;;;;;;;;;;5133377;27;20039;-84
2021/04/20 11:41:39;;;;;;;7.47;4.57;;;;;;;;;;5132021;27;20031;-84
2021/04/20 11:44:06;;;;;;;9.35;4.65;;;;;;;;;;5131681;27;20109;-84
2021/04/20 11:46:32;;;;;;;7.47;5.30;;;;;;;;;;5132061;27;20457;-84
2021/04/20 11:49:07;;;;;;;10.43;5.07;;;;;;;;;;5131980;28;20031;-84
2021/04/20 11:51:34;;;;;;;8.93;4.78;;;;;;;;;;5132014;28;20067;-83
2021/04/20 11:54:00;;;;;;;9.13;5.38;;;;;;;;;;5115118;28;20062;-84
2021/04/20 11:56:26;;;;;;;8.07;5.07;;;;;;;;;;5131721;28;20047;-84
2021/04/20 11:58:52;;;;;;;8.13;4.95;;;;;;;;;;5131853;28;20383;-84
2021/04/20 12:01:18;;;;;;;8.80;5.47;;;;;;;;;;5131893;28;20043;-84
2021/04/20 12:03:50;;;;;;;8.98;4.93;;;;;;;;;;5132890;27;20043;-84
2021/04/20 12:06:16;;;;;;;9.70;5.60;;;;;;;;;;5114906;28;20043;-84
2021/04/20 12:08:43;;;;;;;7.03;5.20;;;;;;;;;;5131716;28;20057;-84
2021/04/20 12:11:09;;;;;;;8.27;5.78;;;;;;;;;;5131711;28;20482;-84
2021/04/20 12:13:44;;;;;;;8.38;5.07;;;;;;;;;;5131674;28;20482;-84
2021/04/20 12:16:10;;;;;;;8.82;5.60;;;;;;;;;;5131444;28;20035;-84
2021/04/20 12:18:37;;;;;;;9.30;5.65;;;;;;;;;;5131601;28;20065;-84
2021/04/20 12:21:06;;;;;;;8.02;5.28;;;;;;;;;;5132914;27;20114;-84
2021/04/20 12:23:33;;;;;;;8.63;5.38;;;;;;;;;;5114745;28;20032;-84
2021/04/20 12:26:00;;;;;;;10.63;5.32;;;;;;;;;;5131582;28;20140;-84
2021/04/20 12:28:26;;;;;;;8.55;4.47;;;;;;;;;;5131608;28;20071;-84
2021/04/20 12:30:52;;;;;;;9.63;4.72;;;;;;;;;;5132561;27;20031;-84
2021/04/20 12:33:20;;;;;;;10.32;5.40;;;;;;;;;;5131529;28;20043;-83
2021/04/20 12:35:46;;;;;;;6.80;4.57;;;;;;;;;;5132507;27;20061;-84
2021/04/20 12:38:12;;;;;;;10.90;4.47;;;;;;;;;;5132580;27;20039;-84
2021/04/20 12:40:38;;;;;;;8.65;4.22;;;;;;;;;;5131388;28;20042;-84
2021/04/20 12:43:04;;;;;;;6.25;4.35;;;;;;;;;;5131630;28;20043;-83
2021/04/20 12:45:32;;;;;;;5.45;4.15;;;;;;;;;;5131418;28;20035;-84
2021/04/20 12:47:58;;;;;;;8.20;4.68;;;;;;;;;;5131261;28;20038;-84
2021/04/20 12:50:32;;;;;;;8.05;4.38;;;;;;;;;;5131319;28;20043;-84
2021/04/20 12:52:59;;;;;;;10.00;4.40;;;;;;;;;;5131370;28;20043;-84
2021/04/20 12:55:25;;;;;;;8.73;4.40;;;;;;;;;;5115755;27;20178;-83
2021/04/20 12:57:51;;;;;;;8.55;4.63;;;;;;;;;;5134779;27;20043;-84
2021/04/20 13:00:18;;;;;;;6.72;4.00;;;;;;;;;;5135017;27;20390;-84
2021/04/20 13:02:44;;;;;;;5.15;3.50;;;;;;;;;;5134968;27;20039;-84
2021/04/20 13:05:10;;;;;;;8.55;3.30;;;;;;;;;;5136112;27;20042;-84
2021/04/20 13:07:36;;;;;;;5.45;3.10;;;;;;;;;;5134820;27;20043;-83
2021/04/20 13:10:05;;;;;;;6.32;3.58;;;;;;;;;;5134978;27;20463;-84
2021/04/20 13:12:31;;;;;;;5.43;3.60;;;;;;;;;;5135930;27;20043;-84
2021/04/20 13:14:57;;;;;;;4.95;3.90;;;;;;;;;;5134870;27;20031;-83
2021/04/20 13:17:24;;;;;;;9.20;3.40;;;;;;;;;;5134554;27;20035;-84
2021/04/20 13:19:50;;;;;;;6.53;3.30;;;;;;;;;;5134657;27;20035;-83
2021/04/20 13:22:16;;;;;;;6.20;3.63;;;;;;;;;;5134790;27;20043;-84
2021/04/20 13:24:42;;;;;;;6.07;3.47;;;;;;;;;;5135767;27;20031;-84
2021/04/20 13:27:08;;;;;;;7.85;3.30;;;;;;;;;;5135496;27;20067;-83
2021/04/20 13:29:34;;;;;;;5.93;3.50;;;;;;;;;;5134629;27;20512;-84
2021/04/20 13:32:02;;;;;;;4.80;3.50;;;;;;;;;;5135653;27;20106;-84
2021/04/20 13:34:30;;;;;;;7.60;3.40;;;;;;;;;;5134244;27;20059;-84
2021/04/20 13:36:56;;;;;;;8.15;3.47;;;;;;;;;;5134252;27;20396;-83
2021/04/20 13:39:29;;;;;;;4.82;2.88;;;;;;;;;;5134184;27;20110;-84
2021/04/20 13:41:54;;;;;;;;;;;;;;;;;;5134611;27;20059;-84
2021/04/20 13:44:33;;;;;;;6.28;3.05;;;;;;;;;;5134248;27;20329;-85
2021/04/20 13:47:00;;;;;;;3.88;2.63;;;;;;;;;;5133942;27;20039;-85
2021/04/20 13:49:26;;;;;;;6.75;3.47;;;;;;;;;;5134107;27;20073;-85
2021/04/20 13:51:57;;;;;;;6.15;3.08;;;;;;;;;;5116995;27;20084;-84
2021/04/20 13:54:41;;;;;;;6.75;3.30;;;;;;;;;;5135118;27;20035;-83
2021/04/20 13:57:08;;;;;;;4.72;3.03;;;;;;;;;;5133999;27;20122;-82
2021/04/20 13:59:41;;;;;;;8.30;3.67;;;;;;;;;;5134123;27;20043;-82
2021/04/20 14:02:12;;;;;;;5.80;3.30;;;;;;;;;;5133932;27;20038;-83
2021/04/20 14:04:40;;;;;;;6.43;3.40;;;;;;;;;;5133855;27;20031;-82
2021/04/20 14:07:11;;;;;;;8.40;3.63;;;;;;;;;;5116388;27;20077;-83
2021/04/20 14:09:38;;;;;;;6.90;3.28;;;;;;;;;;5117300;27;20110;-83
2021/04/20 14:12:06;;;;;;;6.47;3.33;;;;;;;;;;5133592;27;20043;-83
2021/04/20 14:14:53;;;;;;;6.00;3.33;;;;;;;;;;5133526;27;20129;-83
2021/04/20 14:17:19;;;;;;;5.68;3.88;;;;;;;;;;5133873;27;20421;-83
2021/04/20 14:19:45;;;;;;;4.45;2.85;;;;;;;;;;5133425;27;20039;-83
2021/04/20 14:22:11;;;;;;;5.03;3.05;;;;;;;;;;5116295;27;20035;-82
2021/04/20 14:24:37;;;;;;;7.53;3.10;;;;;;;;;;5133704;27;20497;-83
2021/04/20 14:27:06;;;;;;;5.00;3.13;;;;;;;;;;5133324;27;20067;-83
2021/04/20 14:29:33;;;;;;;4.85;3.28;;;;;;;;;;5133245;27;20031;-83
2021/04/20 14:31:59;;;;;;;4.90;2.90;;;;;;;;;;5133297;27;20538;-83
2021/04/20 14:34:26;;;;;;;3.80;2.85;;;;;;;;;;5115880;27;20059;-83
2021/04/20 14:36:57;;;;;;;5.85;2.75;;;;;;;;;;5134116;27;20047;-82